createdAt,value
2023-05-06T00:02:47.124Z,59.13
2023-05-06T00:07:49.800Z,58.68
2023-05-06T00:12:52.531Z,58.83
2023-05-06T00:17:55.614Z,59.46
2023-05-06T00:22:59.340Z,59.37
2023-05-06T00:28:01.830Z,59.70
2023-05-06T00:33:04.415Z,59.11
2023-05-06T00:38:10.228Z,59.11
2023-05-06T00:43:12.840Z,58.89
2023-05-06T00:48:16.341Z,59.47
2023-05-06T00:53:21.656Z,59.02
2023-05-06T00:58:24.181Z,59.22
2023-05-06T01:03:26.872Z,59.11
2023-05-06T01:08:37.464Z,59.04
2023-05-06T01:13:48.486Z,58.81
2023-05-06T01:18:54.730Z,58.96
2023-05-06T01:23:58.488Z,58.62
2023-05-06T01:29:02.321Z,58.77
2023-05-06T01:34:14.181Z,58.82
2023-05-06T01:39:20.613Z,59.03
2023-05-06T01:44:24.034Z,59.34
2023-05-06T01:49:27.848Z,59.30
2023-05-06T01:54:30.546Z,59.19
2023-05-06T01:59:33.065Z,60.02
2023-05-06T02:04:35.899Z,59.68
2023-05-06T02:09:38.697Z,59.63
2023-05-06T02:14:41.283Z,59.80
2023-05-06T02:19:43.811Z,59.48
2023-05-06T02:24:46.431Z,59.34
2023-05-06T02:29:48.998Z,59.58
2023-05-06T02:34:53.135Z,59.63
2023-05-06T02:39:55.662Z,59.85
2023-05-06T02:44:58.750Z,59.71
2023-05-06T02:50:01.341Z,60.00
2023-05-06T02:55:06.347Z,60.23
2023-05-06T03:00:10.927Z,60.37
2023-05-06T03:05:13.514Z,60.11
2023-05-06T03:10:16.218Z,60.22
2023-05-06T03:15:18.888Z,60.35
2023-05-06T03:20:21.502Z,60.58
2023-05-06T03:25:24.230Z,59.91
2023-05-06T03:30:26.877Z,59.86
2023-05-06T03:35:29.507Z,59.55
2023-05-06T03:40:32.809Z,59.53
2023-05-06T03:45:35.926Z,59.12
2023-05-06T03:50:38.622Z,58.95
2023-05-06T03:55:41.900Z,58.91
2023-05-06T04:00:44.549Z,58.55
2023-05-06T04:05:48.997Z,57.97
2023-05-06T04:10:52.086Z,57.92
2023-05-06T04:15:54.717Z,57.37
2023-05-06T04:20:57.316Z,56.74
2023-05-06T04:25:59.967Z,56.09
2023-05-06T04:31:02.596Z,55.58
2023-05-06T04:36:06.583Z,55.00
2023-05-06T04:41:09.458Z,54.96
2023-05-06T04:46:12.111Z,54.49
2023-05-06T04:51:15.129Z,54.33
2023-05-06T04:56:17.620Z,53.50
2023-05-06T05:01:20.928Z,53.18
2023-05-06T05:06:23.590Z,52.72
2023-05-06T05:11:26.367Z,52.45
2023-05-06T05:16:28.999Z,52.08
2023-05-06T05:21:31.686Z,51.70
2023-05-06T05:26:34.281Z,51.06
2023-05-06T05:31:36.989Z,50.18
2023-05-06T05:36:39.585Z,49.97
2023-05-06T05:41:42.134Z,49.19
2023-05-06T05:46:44.717Z,48.47
2023-05-06T05:51:47.615Z,48.03
2023-05-06T05:56:50.583Z,47.32
2023-05-06T06:01:53.123Z,47.21
2023-05-06T06:06:57.959Z,46.77
2023-05-06T06:12:04.485Z,46.57
2023-05-06T06:17:11.452Z,45.91
2023-05-06T06:22:14.009Z,45.89
2023-05-06T06:27:16.512Z,45.18
2023-05-06T06:32:19.601Z,44.42
2023-05-06T06:37:22.223Z,43.83
2023-05-06T06:42:24.760Z,43.11
2023-05-06T06:47:27.419Z,42.46
2023-05-06T06:52:30.115Z,41.32
2023-05-06T06:57:32.657Z,40.82
2023-05-06T07:02:35.299Z,40.08
2023-05-06T07:07:38.070Z,40.08
2023-05-06T07:12:40.619Z,39.73
2023-05-06T07:17:43.663Z,39.50
2023-05-06T07:22:46.244Z,39.27
2023-05-06T07:27:48.820Z,38.70
2023-05-06T07:32:51.514Z,38.31
2023-05-06T07:37:54.220Z,37.74
2023-05-06T07:42:57.185Z,37.03
2023-05-06T07:47:59.971Z,36.68
2023-05-06T07:53:02.534Z,36.14
2023-05-06T07:58:05.120Z,35.29
2023-05-06T08:03:08.168Z,34.69
2023-05-06T08:08:10.907Z,34.69
2023-05-06T08:13:13.623Z,35.28
2023-05-06T08:18:22.286Z,35.17
2023-05-06T08:23:25.821Z,34.34
2023-05-06T08:28:29.266Z,34.09
2023-05-06T08:33:31.849Z,33.31
2023-05-06T08:38:34.380Z,33.37
2023-05-06T08:43:48.041Z,32.94
2023-05-06T08:48:50.946Z,33.37
2023-05-06T08:53:54.762Z,33.65
2023-05-06T08:58:58.500Z,33.46
2023-05-06T09:04:01.329Z,33.40
2023-05-06T09:09:04.027Z,32.99
2023-05-06T09:14:17.691Z,33.55
2023-05-06T09:19:22.338Z,32.49
2023-05-06T09:24:25.551Z,32.42
2023-05-06T09:29:28.066Z,32.47
2023-05-06T09:34:30.620Z,32.83
2023-05-06T09:39:33.258Z,33.51
2023-05-06T09:44:35.885Z,33.37
2023-05-06T09:49:40.503Z,33.44
2023-05-06T09:54:46.836Z,33.12
2023-05-06T09:59:52.189Z,31.74
2023-05-06T10:04:57.217Z,32.27
2023-05-06T10:10:00.302Z,32.75
2023-05-06T10:15:04.425Z,32.75
2023-05-06T10:20:09.844Z,32.67
2023-05-06T10:25:22.457Z,32.18
2023-05-06T10:30:26.632Z,31.76
2023-05-06T10:35:47.236Z,31.77
2023-05-06T10:40:50.558Z,31.58
2023-05-06T10:46:04.731Z,32.17
2023-05-06T10:51:16.496Z,31.80
2023-05-06T10:56:19.080Z,31.61
2023-05-06T11:01:25.951Z,32.15
2023-05-06T11:06:34.065Z,31.50
2023-05-06T11:12:03.296Z,31.30
2023-05-06T11:17:08.450Z,31.61
2023-05-06T11:22:40.858Z,31.74
2023-05-06T11:27:43.368Z,31.70
2023-05-06T11:32:46.854Z,31.54
2023-05-06T11:37:52.096Z,31.66
2023-05-06T11:42:54.669Z,30.68
2023-05-06T11:47:57.154Z,30.35
2023-05-06T11:52:59.842Z,31.18
2023-05-06T11:58:02.370Z,31.28
2023-05-06T12:03:05.056Z,31.52
2023-05-06T12:08:16.571Z,31.74
2023-05-06T12:13:29.823Z,31.38
2023-05-06T12:18:32.814Z,31.81
2023-05-06T12:23:35.495Z,32.14
2023-05-06T12:28:38.373Z,31.94
2023-05-06T12:33:46.341Z,32.54
2023-05-06T12:38:50.922Z,32.50
2023-05-06T12:43:53.492Z,33.04
2023-05-06T12:49:03.413Z,33.35
2023-05-06T12:54:28.890Z,33.57
2023-05-06T12:59:32.041Z,34.09
2023-05-06T13:04:34.614Z,33.88
2023-05-06T13:09:37.171Z,33.64
2023-05-06T13:14:40.440Z,33.31
2023-05-06T13:19:43.132Z,34.00
2023-05-06T13:24:46.099Z,34.24
2023-05-06T13:29:48.635Z,33.61
2023-05-06T13:34:51.180Z,33.51
2023-05-06T13:39:53.765Z,33.47
2023-05-06T13:44:56.414Z,33.23
2023-05-06T13:49:58.951Z,33.71
2023-05-06T13:55:01.606Z,33.58
2023-05-06T14:00:07.364Z,33.39
2023-05-06T14:05:10.419Z,33.81
2023-05-06T14:10:14.275Z,33.73
2023-05-06T14:15:16.872Z,33.95
2023-05-06T14:20:19.455Z,34.34
2023-05-06T14:25:26.781Z,34.70
2023-05-06T14:30:30.983Z,34.98
2023-05-06T14:35:33.555Z,35.16
2023-05-06T14:40:36.878Z,35.06
2023-05-06T14:45:39.501Z,35.05
2023-05-06T14:50:42.205Z,35.64
2023-05-06T14:55:45.486Z,35.95
2023-05-06T15:00:48.129Z,36.06
2023-05-06T15:05:51.049Z,35.90
2023-05-06T15:10:54.806Z,35.65
2023-05-06T15:15:57.330Z,35.66
2023-05-06T15:21:01.428Z,35.56
2023-05-06T15:26:04.309Z,35.35
2023-05-06T15:31:06.985Z,35.90
2023-05-06T15:36:09.728Z,35.27
2023-05-06T15:41:12.256Z,35.22
2023-05-06T15:46:14.841Z,35.29
2023-05-06T15:51:17.959Z,35.58
2023-05-06T15:56:21.318Z,35.88
2023-05-06T16:01:47.994Z,35.80
2023-05-06T16:06:46.536Z,36.66
2023-05-06T16:11:49.294Z,36.66
2023-05-06T16:16:51.975Z,36.51
2023-05-06T16:21:55.740Z,36.97
2023-05-06T16:26:58.230Z,36.89
2023-05-06T16:32:00.906Z,37.12
2023-05-06T16:37:03.603Z,37.09
2023-05-06T16:42:06.617Z,37.63
2023-05-06T16:47:09.200Z,37.73
2023-05-06T16:52:12.002Z,37.77
2023-05-06T16:57:14.530Z,38.14
2023-05-06T17:02:17.146Z,38.13
2023-05-06T17:07:19.757Z,38.68
2023-05-06T17:12:23.840Z,39.00
2023-05-06T17:17:28.679Z,39.12
2023-05-06T17:22:31.235Z,39.11
2023-05-06T17:27:33.761Z,39.49
2023-05-06T17:32:36.326Z,39.71
2023-05-06T17:37:39.224Z,40.17
2023-05-06T17:42:41.853Z,40.40
2023-05-06T17:47:44.449Z,40.70
2023-05-06T17:52:50.682Z,41.11
2023-05-06T17:57:53.424Z,41.32
2023-05-06T18:02:56.168Z,41.80
2023-05-06T18:07:58.808Z,41.97
2023-05-06T18:13:01.551Z,42.33
2023-05-06T18:18:04.354Z,42.86
2023-05-06T18:23:08.282Z,43.36
2023-05-06T18:28:11.098Z,43.74
2023-05-06T18:33:14.464Z,44.35
2023-05-06T18:38:17.122Z,44.89
2023-05-06T18:43:19.632Z,45.33
2023-05-06T18:48:22.450Z,45.69
2023-05-06T18:53:25.113Z,46.05
2023-05-06T18:58:27.649Z,46.36
2023-05-06T19:03:31.430Z,46.57
2023-05-06T19:08:34.054Z,46.80
2023-05-06T19:13:36.617Z,47.16
2023-05-06T19:18:41.472Z,47.30
2023-05-06T19:23:44.864Z,47.30
2023-05-06T19:28:47.453Z,47.37
2023-05-06T19:33:50.133Z,47.46
2023-05-06T19:38:52.698Z,47.63
2023-05-06T19:43:55.954Z,47.63
2023-05-06T19:49:00.587Z,47.84
2023-05-06T19:54:03.235Z,47.98
2023-05-06T19:59:05.780Z,48.05
2023-05-06T20:04:09.673Z,48.18
2023-05-06T20:09:12.360Z,48.27
2023-05-06T20:14:14.859Z,48.50
2023-05-06T20:19:18.565Z,48.66
2023-05-06T20:24:21.083Z,49.06
2023-05-06T20:29:23.651Z,49.29
2023-05-06T20:34:27.821Z,49.27
2023-05-06T20:39:30.724Z,49.32
2023-05-06T20:44:33.273Z,49.57
2023-05-06T20:49:36.002Z,49.78
2023-05-06T20:54:40.965Z,50.07
2023-05-06T20:59:44.002Z,50.27
2023-05-06T21:04:46.608Z,50.63
2023-05-06T21:09:49.146Z,50.75
2023-05-06T21:14:51.638Z,51.25
2023-05-06T21:19:54.222Z,51.31
2023-05-06T21:24:56.830Z,51.84
2023-05-06T21:29:59.412Z,51.96
2023-05-06T21:35:02.831Z,51.99
2023-05-06T21:40:05.731Z,52.17
2023-05-06T21:45:08.837Z,52.12
2023-05-06T21:50:12.238Z,52.21
2023-05-06T21:55:15.659Z,52.30
2023-05-06T22:00:18.542Z,52.37
2023-05-06T22:05:21.261Z,52.53
2023-05-06T22:10:23.844Z,52.69
2023-05-06T22:15:26.610Z,52.57
2023-05-06T22:20:30.630Z,52.42
2023-05-06T22:25:33.190Z,52.47
2023-05-06T22:30:35.730Z,52.58
2023-05-06T22:35:38.271Z,52.57
2023-05-06T22:40:40.761Z,52.58
2023-05-06T22:45:43.362Z,52.87
2023-05-06T22:50:46.687Z,52.82
2023-05-06T22:55:49.310Z,53.05
2023-05-06T23:00:51.903Z,53.33
2023-05-06T23:05:54.607Z,53.47
2023-05-06T23:10:57.169Z,53.98
2023-05-06T23:15:59.725Z,54.40
2023-05-06T23:21:02.597Z,54.25
2023-05-06T23:26:05.270Z,54.22
2023-05-06T23:31:08.271Z,54.50
2023-05-06T23:36:11.144Z,54.76
2023-05-06T23:41:13.679Z,55.37
2023-05-06T23:46:16.346Z,55.60
2023-05-06T23:51:19.071Z,55.68
2023-05-06T23:56:21.823Z,56.34
